CXA8575 ZSAM-ZSZS
Flight info
| Callsign | CXA8575 |
|---|---|
| Flight time | 1h 13m |
| Altitude | 22600 |
| Route | DOVPU W643 FOC W644 ANLUD B221 SHZ W58 BK W67 HSN |
| Aircraft | B38M/M-SDE3FGHIRWYZ/EB1 |
Departure
| Time | 2026-04-21 10:16 |
|---|---|
| Airport | Xiamen Gaoqi International Airport (ZSAM) |
Arrival
| Time | 2026-04-21 11:30 |
|---|---|
| Airport | Zhoushan Putuoshan International Airport (ZSZS) |
| Time | Latitude | Longitude | Altitude | Speed | Heading |
|---|---|---|---|---|---|
| 2026-04-21 09:59 | 24.53598 | 118.12306 | 63 ft | 0 kts | 143° |
| 2026-04-21 10:04 | 24.53613 | 118.12295 | 56 ft | 4 kts | 144° |
| 2026-04-21 10:04 | 24.53633 | 118.12276 | 54 ft | 4 kts | 131° |
| 2026-04-21 10:05 | 24.53631 | 118.12277 | 54 ft | 4 kts | 298° |
| 2026-04-21 10:05 | 24.53640 | 118.12249 | 56 ft | 4 kts | 287° |
| 2026-04-21 10:05 | 24.53643 | 118.12237 | 56 ft | 1 kts | 284° |
| 2026-04-21 10:05 | 24.53652 | 118.12220 | 59 ft | 4 kts | 308° |
| 2026-04-21 10:06 | 24.53672 | 118.12201 | 61 ft | 4 kts | 324° |
| 2026-04-21 10:06 | 24.53694 | 118.12185 | 55 ft | 1 kts | 144° |
| 2026-04-21 10:10 | 24.53691 | 118.12187 | 60 ft | 2 kts | 144° |
| 2026-04-21 10:10 | 24.53670 | 118.12203 | 62 ft | 5 kts | 143° |
| 2026-04-21 10:11 | 24.53644 | 118.12216 | 61 ft | 1 kts | 187° |
| 2026-04-21 10:11 | 24.53621 | 118.12205 | 58 ft | 8 kts | 219° |
| 2026-04-21 10:11 | 24.53563 | 118.12126 | 60 ft | 14 kts | 231° |
| 2026-04-21 10:11 | 24.53557 | 118.12056 | 55 ft | 8 kts | 319° |
| 2026-04-21 10:12 | 24.53607 | 118.12016 | 62 ft | 11 kts | 322° |
| 2026-04-21 10:12 | 24.53631 | 118.11966 | 64 ft | 4 kts | 255° |
| 2026-04-21 10:12 | 24.53616 | 118.11941 | 62 ft | 8 kts | 232° |
| 2026-04-21 10:12 | 24.53561 | 118.11865 | 63 ft | 16 kts | 232° |
| 2026-04-21 10:13 | 24.53490 | 118.11764 | 61 ft | 17 kts | 232° |
| 2026-04-21 10:13 | 24.53418 | 118.11665 | 62 ft | 12 kts | 231° |
| 2026-04-21 10:13 | 24.53399 | 118.11577 | 67 ft | 12 kts | 280° |
| 2026-04-21 10:13 | 24.53404 | 118.11559 | 67 ft | 0 kts | 289° |
| 2026-04-21 10:14 | 24.53406 | 118.11551 | 67 ft | 5 kts | 288° |
| 2026-04-21 10:14 | 24.53443 | 118.11481 | 64 ft | 14 kts | 328° |
| 2026-04-21 10:15 | 24.53524 | 118.11525 | 61 ft | 14 kts | 53° |
| 2026-04-21 10:15 | 24.53589 | 118.11616 | 57 ft | 19 kts | 52° |
| 2026-04-21 10:15 | 24.53802 | 118.11915 | 57 ft | 84 kts | 52° |
| 2026-04-21 10:15 | 24.54280 | 118.12583 | 54 ft | 136 kts | 52° |
| 2026-04-21 10:16 | 24.54906 | 118.13473 | 368 ft | 152 kts | 52° |
| 2026-04-21 10:16 | 24.55603 | 118.14398 | 811 ft | 160 kts | 51° |
| 2026-04-21 10:16 | 24.56316 | 118.15328 | 1338 ft | 158 kts | 53° |
| 2026-04-21 10:16 | 24.56973 | 118.16322 | 1795 ft | 165 kts | 56° |
| 2026-04-21 10:17 | 24.57662 | 118.17329 | 2256 ft | 165 kts | 54° |
| 2026-04-21 10:17 | 24.58384 | 118.18334 | 2477 ft | 170 kts | 55° |
| 2026-04-21 10:17 | 24.59120 | 118.19364 | 2694 ft | 173 kts | 54° |
| 2026-04-21 10:17 | 24.59876 | 118.20423 | 3122 ft | 182 kts | 54° |
| 2026-04-21 10:18 | 24.60713 | 118.21600 | 3385 ft | 210 kts | 54° |
| 2026-04-21 10:18 | 24.61704 | 118.22917 | 3717 ft | 236 kts | 47° |
| 2026-04-21 10:18 | 24.62954 | 118.24172 | 4206 ft | 256 kts | 43° |
| 2026-04-21 10:18 | 24.64325 | 118.25536 | 4736 ft | 275 kts | 44° |
| 2026-04-21 10:19 | 24.65775 | 118.27000 | 5309 ft | 288 kts | 44° |
| 2026-04-21 10:19 | 24.67271 | 118.28525 | 6135 ft | 291 kts | 44° |
| 2026-04-21 10:19 | 24.68742 | 118.30035 | 6888 ft | 295 kts | 44° |
| 2026-04-21 10:19 | 24.70245 | 118.31581 | 7708 ft | 298 kts | 44° |
| 2026-04-21 10:20 | 24.71768 | 118.33154 | 8488 ft | 302 kts | 43° |
| 2026-04-21 10:20 | 24.73307 | 118.34746 | 9232 ft | 306 kts | 43° |
| 2026-04-21 10:20 | 24.74784 | 118.36467 | 9977 ft | 311 kts | 46° |
| 2026-04-21 10:20 | 24.76272 | 118.38240 | 10506 ft | 323 kts | 46° |
| 2026-04-21 10:21 | 24.77844 | 118.40100 | 10836 ft | 341 kts | 46° |
| 2026-04-21 10:21 | 24.79498 | 118.42051 | 11304 ft | 352 kts | 46° |
| 2026-04-21 10:21 | 24.81168 | 118.44018 | 12086 ft | 354 kts | 46° |
| 2026-04-21 10:21 | 24.82864 | 118.46016 | 12803 ft | 359 kts | 46° |
| 2026-04-21 10:22 | 24.84575 | 118.48026 | 13568 ft | 362 kts | 45° |
| 2026-04-21 10:22 | 24.86303 | 118.50065 | 14266 ft | 367 kts | 45° |
| 2026-04-21 10:22 | 24.88062 | 118.52124 | 14952 ft | 371 kts | 45° |
| 2026-04-21 10:22 | 24.89845 | 118.54210 | 15664 ft | 375 kts | 45° |
| 2026-04-21 10:23 | 24.91643 | 118.56314 | 16333 ft | 379 kts | 45° |
| 2026-04-21 10:23 | 24.93464 | 118.58446 | 16997 ft | 383 kts | 45° |
| 2026-04-21 10:23 | 24.95306 | 118.60603 | 17674 ft | 387 kts | 45° |
| 2026-04-21 10:23 | 24.97157 | 118.62772 | 18298 ft | 391 kts | 45° |
| 2026-04-21 10:24 | 24.99026 | 118.64963 | 18816 ft | 395 kts | 45° |
| 2026-04-21 10:24 | 25.00916 | 118.67180 | 19357 ft | 398 kts | 45° |
| 2026-04-21 10:24 | 25.02824 | 118.69419 | 19888 ft | 402 kts | 45° |
| 2026-04-21 10:24 | 25.04750 | 118.71681 | 20402 ft | 406 kts | 45° |
| 2026-04-21 10:25 | 25.06666 | 118.73932 | 20924 ft | 409 kts | 45° |
| 2026-04-21 10:25 | 25.08631 | 118.76242 | 21448 ft | 413 kts | 45° |
| 2026-04-21 10:25 | 25.10605 | 118.78563 | 21980 ft | 417 kts | 45° |
| 2026-04-21 10:25 | 25.12599 | 118.80909 | 22428 ft | 422 kts | 44° |
| 2026-04-21 10:26 | 25.14627 | 118.83296 | 22524 ft | 432 kts | 45° |
| 2026-04-21 10:26 | 25.16701 | 118.85740 | 22544 ft | 440 kts | 45° |
| 2026-04-21 10:26 | 25.18808 | 118.88222 | 22538 ft | 444 kts | 45° |
| 2026-04-21 10:26 | 25.20918 | 118.90710 | 22573 ft | 444 kts | 45° |
| 2026-04-21 10:27 | 25.23033 | 118.93205 | 22571 ft | 444 kts | 45° |
| 2026-04-21 10:27 | 25.25139 | 118.95691 | 22568 ft | 444 kts | 45° |
| 2026-04-21 10:27 | 25.27265 | 118.98172 | 22570 ft | 444 kts | 44° |
| 2026-04-21 10:27 | 25.29390 | 119.00640 | 22570 ft | 444 kts | 44° |
| 2026-04-21 10:28 | 25.31522 | 119.03119 | 22573 ft | 444 kts | 44° |
| 2026-04-21 10:28 | 25.33627 | 119.05569 | 22564 ft | 444 kts | 44° |
| 2026-04-21 10:28 | 25.35758 | 119.08051 | 22577 ft | 444 kts | 44° |
| 2026-04-21 10:28 | 25.37876 | 119.10518 | 22571 ft | 444 kts | 44° |
| 2026-04-21 10:29 | 25.40003 | 119.12999 | 22572 ft | 443 kts | 44° |
| 2026-04-21 10:29 | 25.42132 | 119.15483 | 22575 ft | 443 kts | 44° |
| 2026-04-21 10:29 | 25.44256 | 119.17962 | 22580 ft | 443 kts | 44° |
| 2026-04-21 10:29 | 25.46371 | 119.20433 | 22580 ft | 443 kts | 44° |
| 2026-04-21 10:30 | 25.48490 | 119.22908 | 22580 ft | 443 kts | 45° |
| 2026-04-21 10:30 | 25.50608 | 119.25386 | 22582 ft | 442 kts | 45° |
| 2026-04-21 10:30 | 25.52723 | 119.27858 | 22582 ft | 442 kts | 45° |
| 2026-04-21 10:30 | 25.54831 | 119.30344 | 22578 ft | 442 kts | 45° |
| 2026-04-21 10:31 | 25.56908 | 119.32795 | 22586 ft | 442 kts | 45° |
| 2026-04-21 10:31 | 25.59009 | 119.35275 | 22570 ft | 442 kts | 45° |
| 2026-04-21 10:31 | 25.61110 | 119.37757 | 22590 ft | 442 kts | 45° |
| 2026-04-21 10:31 | 25.63212 | 119.40242 | 22576 ft | 441 kts | 45° |
| 2026-04-21 10:32 | 25.65314 | 119.42727 | 22585 ft | 441 kts | 45° |
| 2026-04-21 10:32 | 25.67410 | 119.45206 | 22572 ft | 441 kts | 45° |
| 2026-04-21 10:32 | 25.69505 | 119.47686 | 22587 ft | 441 kts | 45° |
| 2026-04-21 10:32 | 25.71595 | 119.50162 | 22593 ft | 440 kts | 45° |
| 2026-04-21 10:33 | 25.73692 | 119.52646 | 22601 ft | 440 kts | 45° |
| 2026-04-21 10:33 | 25.75784 | 119.55127 | 22577 ft | 440 kts | 45° |
| 2026-04-21 10:33 | 25.78053 | 119.57379 | 22570 ft | 435 kts | 30° |
| 2026-04-21 10:33 | 25.80699 | 119.59000 | 22604 ft | 435 kts | 25° |
| 2026-04-21 10:34 | 25.83364 | 119.60566 | 22598 ft | 434 kts | 25° |
| 2026-04-21 10:34 | 25.86061 | 119.62127 | 22603 ft | 434 kts | 24° |
| 2026-04-21 10:34 | 25.88744 | 119.63666 | 22599 ft | 434 kts | 24° |
| 2026-04-21 10:34 | 25.91433 | 119.65196 | 22601 ft | 434 kts | 24° |
| 2026-04-21 10:35 | 25.94126 | 119.66711 | 22593 ft | 434 kts | 24° |
| 2026-04-21 10:35 | 25.96827 | 119.68233 | 22602 ft | 435 kts | 24° |
| 2026-04-21 10:35 | 25.99520 | 119.69752 | 22587 ft | 435 kts | 24° |
| 2026-04-21 10:35 | 26.02218 | 119.71274 | 22596 ft | 435 kts | 24° |
| 2026-04-21 10:36 | 26.04924 | 119.72802 | 22592 ft | 435 kts | 24° |
| 2026-04-21 10:36 | 26.07675 | 119.74034 | 22587 ft | 429 kts | 9° |
| 2026-04-21 10:36 | 26.10600 | 119.74373 | 22598 ft | 421 kts | 354° |
| 2026-04-21 10:36 | 26.13539 | 119.74272 | 22604 ft | 422 kts | 354° |
| 2026-04-21 10:37 | 26.16474 | 119.74138 | 22590 ft | 421 kts | 353° |
| 2026-04-21 10:37 | 26.19407 | 119.73977 | 22600 ft | 421 kts | 353° |
| 2026-04-21 10:37 | 26.22340 | 119.73805 | 22595 ft | 421 kts | 353° |
| 2026-04-21 10:37 | 26.25268 | 119.73628 | 22593 ft | 421 kts | 353° |
| 2026-04-21 10:38 | 26.28191 | 119.73448 | 22605 ft | 421 kts | 353° |
| 2026-04-21 10:38 | 26.31120 | 119.73266 | 22611 ft | 421 kts | 353° |
| 2026-04-21 10:38 | 26.34017 | 119.73085 | 22610 ft | 421 kts | 353° |
| 2026-04-21 10:38 | 26.36945 | 119.72903 | 22610 ft | 421 kts | 353° |
| 2026-04-21 10:39 | 26.39870 | 119.72719 | 22610 ft | 421 kts | 353° |
| 2026-04-21 10:39 | 26.42793 | 119.72536 | 22612 ft | 421 kts | 352° |
| 2026-04-21 10:39 | 26.44783 | 119.72513 | 22599 ft | 425 kts | 1° |
| 2026-04-21 10:39 | 26.47688 | 119.73226 | 22603 ft | 432 kts | 18° |
| 2026-04-21 10:40 | 26.50363 | 119.74785 | 22615 ft | 437 kts | 28° |
| 2026-04-21 10:40 | 26.52964 | 119.76561 | 22613 ft | 438 kts | 28° |
| 2026-04-21 10:40 | 26.55558 | 119.78354 | 22611 ft | 438 kts | 29° |
| 2026-04-21 10:40 | 26.58108 | 119.80136 | 22615 ft | 438 kts | 29° |
| 2026-04-21 10:41 | 26.60724 | 119.81971 | 22616 ft | 438 kts | 29° |
| 2026-04-21 10:41 | 26.63311 | 119.83789 | 22616 ft | 438 kts | 29° |
| 2026-04-21 10:41 | 26.65891 | 119.85603 | 22623 ft | 438 kts | 29° |
| 2026-04-21 10:41 | 26.68433 | 119.87393 | 22624 ft | 438 kts | 29° |
| 2026-04-21 10:42 | 26.71020 | 119.89214 | 22611 ft | 439 kts | 29° |
| 2026-04-21 10:42 | 26.73602 | 119.91034 | 22611 ft | 440 kts | 29° |
| 2026-04-21 10:42 | 26.76202 | 119.92867 | 22616 ft | 440 kts | 29° |
| 2026-04-21 10:42 | 26.78784 | 119.94688 | 22615 ft | 439 kts | 29° |
| 2026-04-21 10:43 | 26.81364 | 119.96509 | 22632 ft | 439 kts | 30° |
| 2026-04-21 10:43 | 26.83951 | 119.98337 | 22613 ft | 439 kts | 30° |
| 2026-04-21 10:43 | 26.86539 | 120.00166 | 22617 ft | 440 kts | 30° |
| 2026-04-21 10:43 | 26.89131 | 120.02001 | 22622 ft | 440 kts | 30° |
| 2026-04-21 10:44 | 26.91715 | 120.03832 | 22635 ft | 440 kts | 30° |
| 2026-04-21 10:44 | 26.94296 | 120.05661 | 22632 ft | 439 kts | 30° |
| 2026-04-21 10:44 | 26.96878 | 120.07492 | 22628 ft | 439 kts | 30° |
| 2026-04-21 10:44 | 26.99455 | 120.09320 | 22631 ft | 438 kts | 30° |
| 2026-04-21 10:45 | 27.02019 | 120.11140 | 22627 ft | 438 kts | 30° |
| 2026-04-21 10:45 | 27.04610 | 120.12981 | 22627 ft | 438 kts | 30° |
| 2026-04-21 10:45 | 27.07180 | 120.14808 | 22628 ft | 437 kts | 30° |
| 2026-04-21 10:45 | 27.09743 | 120.16630 | 22623 ft | 437 kts | 30° |
| 2026-04-21 10:46 | 27.12307 | 120.18451 | 22627 ft | 436 kts | 29° |
| 2026-04-21 10:46 | 27.14888 | 120.20270 | 22636 ft | 436 kts | 29° |
| 2026-04-21 10:46 | 27.17459 | 120.22084 | 22640 ft | 436 kts | 29° |
| 2026-04-21 10:46 | 27.20025 | 120.23896 | 22635 ft | 436 kts | 29° |
| 2026-04-21 10:47 | 27.22561 | 120.25687 | 22642 ft | 436 kts | 29° |
| 2026-04-21 10:47 | 27.25133 | 120.27505 | 22629 ft | 436 kts | 29° |
| 2026-04-21 10:47 | 27.27696 | 120.29316 | 22639 ft | 436 kts | 29° |
| 2026-04-21 10:47 | 27.30270 | 120.31138 | 22642 ft | 436 kts | 29° |
| 2026-04-21 10:48 | 27.32833 | 120.32953 | 22636 ft | 436 kts | 29° |
| 2026-04-21 10:48 | 27.35410 | 120.34778 | 22644 ft | 437 kts | 29° |
| 2026-04-21 10:48 | 27.37987 | 120.36604 | 22679 ft | 436 kts | 29° |
| 2026-04-21 10:48 | 27.40544 | 120.38416 | 22656 ft | 435 kts | 28° |
| 2026-04-21 10:49 | 27.43108 | 120.40235 | 22647 ft | 434 kts | 28° |
| 2026-04-21 10:49 | 27.45665 | 120.42050 | 22642 ft | 434 kts | 28° |
| 2026-04-21 10:49 | 27.48219 | 120.43863 | 22643 ft | 434 kts | 28° |
| 2026-04-21 10:49 | 27.50770 | 120.45675 | 22644 ft | 434 kts | 28° |
| 2026-04-21 10:50 | 27.53324 | 120.47491 | 22642 ft | 434 kts | 28° |
| 2026-04-21 10:50 | 27.55846 | 120.49285 | 22644 ft | 434 kts | 28° |
| 2026-04-21 10:50 | 27.58432 | 120.51124 | 22645 ft | 434 kts | 28° |
| 2026-04-21 10:50 | 27.60975 | 120.52936 | 22647 ft | 434 kts | 28° |
| 2026-04-21 10:51 | 27.63536 | 120.54760 | 22637 ft | 434 kts | 28° |
| 2026-04-21 10:51 | 27.66057 | 120.56558 | 22652 ft | 434 kts | 28° |
| 2026-04-21 10:51 | 27.68605 | 120.58375 | 22654 ft | 434 kts | 28° |
| 2026-04-21 10:51 | 27.71160 | 120.60198 | 22648 ft | 434 kts | 28° |
| 2026-04-21 10:52 | 27.73763 | 120.61913 | 22638 ft | 429 kts | 19° |
| 2026-04-21 10:52 | 27.76587 | 120.62821 | 22647 ft | 420 kts | 3° |
| 2026-04-21 10:52 | 27.79490 | 120.63204 | 22646 ft | 419 kts | 1° |
| 2026-04-21 10:52 | 27.82400 | 120.63544 | 22647 ft | 419 kts | 1° |
| 2026-04-21 10:53 | 27.85301 | 120.63857 | 22650 ft | 419 kts | 0° |
| 2026-04-21 10:53 | 27.88200 | 120.64154 | 22651 ft | 419 kts | 0° |
| 2026-04-21 10:53 | 27.91071 | 120.64438 | 22650 ft | 419 kts | 0° |
| 2026-04-21 10:53 | 27.94009 | 120.64727 | 22648 ft | 419 kts | 0° |
| 2026-04-21 10:54 | 27.96909 | 120.65011 | 22645 ft | 418 kts | 360° |
| 2026-04-21 10:54 | 27.99811 | 120.65296 | 22645 ft | 418 kts | 360° |
| 2026-04-21 10:54 | 28.02706 | 120.65579 | 22650 ft | 418 kts | 360° |
| 2026-04-21 10:54 | 28.05581 | 120.65860 | 22647 ft | 418 kts | 360° |
| 2026-04-21 10:55 | 28.08509 | 120.66147 | 22642 ft | 418 kts | 360° |
| 2026-04-21 10:55 | 28.11409 | 120.66431 | 22646 ft | 417 kts | 360° |
| 2026-04-21 10:55 | 28.14260 | 120.66710 | 22643 ft | 417 kts | 360° |
| 2026-04-21 10:55 | 28.17155 | 120.66994 | 22648 ft | 417 kts | 360° |
| 2026-04-21 10:56 | 28.20048 | 120.67278 | 22638 ft | 417 kts | 360° |
| 2026-04-21 10:56 | 28.22935 | 120.67561 | 22649 ft | 417 kts | 360° |
| 2026-04-21 10:56 | 28.25834 | 120.67846 | 22648 ft | 417 kts | 360° |
| 2026-04-21 10:56 | 28.28715 | 120.68129 | 22641 ft | 416 kts | 360° |
| 2026-04-21 10:57 | 28.31602 | 120.68413 | 22642 ft | 416 kts | 360° |
| 2026-04-21 10:57 | 28.34485 | 120.68697 | 22643 ft | 416 kts | 360° |
| 2026-04-21 10:57 | 28.37369 | 120.68980 | 22646 ft | 416 kts | 360° |
| 2026-04-21 10:57 | 28.40256 | 120.69265 | 22641 ft | 416 kts | 0° |
| 2026-04-21 10:58 | 28.43111 | 120.69546 | 22639 ft | 416 kts | 360° |
| 2026-04-21 10:58 | 28.45997 | 120.69836 | 22639 ft | 416 kts | 0° |
| 2026-04-21 10:58 | 28.48879 | 120.70125 | 22636 ft | 416 kts | 0° |
| 2026-04-21 10:58 | 28.51762 | 120.70415 | 22642 ft | 416 kts | 0° |
| 2026-04-21 10:59 | 28.54650 | 120.70705 | 22636 ft | 416 kts | 0° |
| 2026-04-21 10:59 | 28.57530 | 120.70995 | 22633 ft | 416 kts | 0° |
| 2026-04-21 10:59 | 28.60414 | 120.71285 | 22629 ft | 416 kts | 0° |
| 2026-04-21 10:59 | 28.63292 | 120.71575 | 22623 ft | 416 kts | 0° |
| 2026-04-21 11:00 | 28.66182 | 120.71866 | 22628 ft | 416 kts | 0° |
| 2026-04-21 11:00 | 28.69069 | 120.72162 | 22628 ft | 416 kts | 0° |
| 2026-04-21 11:00 | 28.71946 | 120.72478 | 22629 ft | 416 kts | 0° |
| 2026-04-21 11:00 | 28.74822 | 120.72793 | 22619 ft | 416 kts | 0° |
| 2026-04-21 11:01 | 28.77711 | 120.73107 | 22625 ft | 416 kts | 0° |
| 2026-04-21 11:01 | 28.80603 | 120.73422 | 22624 ft | 417 kts | 0° |
| 2026-04-21 11:01 | 28.83488 | 120.73737 | 22621 ft | 417 kts | 0° |
| 2026-04-21 11:02 | 28.89259 | 120.74329 | 22627 ft | 417 kts | 0° |
| 2026-04-21 11:02 | 28.92165 | 120.74620 | 22620 ft | 416 kts | 0° |
| 2026-04-21 11:02 | 28.95044 | 120.74910 | 22614 ft | 416 kts | 0° |
| 2026-04-21 11:02 | 28.97935 | 120.75202 | 22616 ft | 417 kts | 0° |
| 2026-04-21 11:03 | 29.00790 | 120.75490 | 22615 ft | 417 kts | 0° |
| 2026-04-21 11:03 | 29.03713 | 120.75785 | 22614 ft | 417 kts | 0° |
| 2026-04-21 11:03 | 29.06607 | 120.76077 | 22612 ft | 417 kts | 0° |
| 2026-04-21 11:03 | 29.09469 | 120.76367 | 22608 ft | 418 kts | 0° |
| 2026-04-21 11:04 | 29.12363 | 120.76659 | 22603 ft | 418 kts | 0° |
| 2026-04-21 11:04 | 29.15292 | 120.76956 | 22607 ft | 419 kts | 0° |
| 2026-04-21 11:04 | 29.18198 | 120.77251 | 22604 ft | 419 kts | 0° |
| 2026-04-21 11:04 | 29.21106 | 120.77546 | 22598 ft | 419 kts | 0° |
| 2026-04-21 11:05 | 29.24009 | 120.77840 | 22601 ft | 420 kts | 0° |
| 2026-04-21 11:05 | 29.26925 | 120.78136 | 22600 ft | 420 kts | 0° |
| 2026-04-21 11:05 | 29.29841 | 120.78433 | 22599 ft | 420 kts | 0° |
| 2026-04-21 11:05 | 29.32761 | 120.78730 | 22597 ft | 421 kts | 0° |
| 2026-04-21 11:06 | 29.35638 | 120.79022 | 22597 ft | 421 kts | 0° |
| 2026-04-21 11:06 | 29.38548 | 120.79319 | 22593 ft | 421 kts | 0° |
| 2026-04-21 11:06 | 29.41449 | 120.79615 | 22149 ft | 417 kts | 0° |
| 2026-04-21 11:06 | 29.44346 | 120.79910 | 21558 ft | 416 kts | 0° |
| 2026-04-21 11:07 | 29.47222 | 120.80204 | 21114 ft | 412 kts | 0° |
| 2026-04-21 11:07 | 29.50071 | 120.80494 | 20632 ft | 409 kts | 0° |
| 2026-04-21 11:07 | 29.52899 | 120.80783 | 20177 ft | 407 kts | 0° |
| 2026-04-21 11:07 | 29.55703 | 120.81091 | 19728 ft | 405 kts | 4° |
| 2026-04-21 11:08 | 29.58389 | 120.82005 | 19300 ft | 411 kts | 21° |
| 2026-04-21 11:08 | 29.60809 | 120.83856 | 18838 ft | 417 kts | 40° |
| 2026-04-21 11:08 | 29.62662 | 120.86408 | 18417 ft | 418 kts | 54° |
| 2026-04-21 11:08 | 29.64287 | 120.89171 | 17930 ft | 416 kts | 54° |
| 2026-04-21 11:09 | 29.65870 | 120.91890 | 17519 ft | 412 kts | 54° |
| 2026-04-21 11:09 | 29.67471 | 120.94666 | 17042 ft | 410 kts | 54° |
| 2026-04-21 11:09 | 29.69025 | 120.97372 | 16596 ft | 408 kts | 54° |
| 2026-04-21 11:09 | 29.70580 | 121.00085 | 16194 ft | 404 kts | 54° |
| 2026-04-21 11:10 | 29.72124 | 121.02784 | 15790 ft | 402 kts | 54° |
| 2026-04-21 11:10 | 29.73658 | 121.05464 | 15280 ft | 399 kts | 55° |
| 2026-04-21 11:10 | 29.75172 | 121.08113 | 14982 ft | 393 kts | 55° |
| 2026-04-21 11:10 | 29.76656 | 121.10713 | 14703 ft | 386 kts | 54° |
| 2026-04-21 11:11 | 29.78123 | 121.13282 | 14298 ft | 383 kts | 54° |
| 2026-04-21 11:11 | 29.79564 | 121.15807 | 13903 ft | 379 kts | 55° |
| 2026-04-21 11:11 | 29.81023 | 121.18366 | 13455 ft | 377 kts | 55° |
| 2026-04-21 11:11 | 29.82452 | 121.20876 | 13043 ft | 374 kts | 55° |
| 2026-04-21 11:12 | 29.83853 | 121.23337 | 12663 ft | 370 kts | 54° |
| 2026-04-21 11:12 | 29.85255 | 121.25801 | 12266 ft | 367 kts | 55° |
| 2026-04-21 11:12 | 29.86645 | 121.28245 | 11855 ft | 364 kts | 54° |
| 2026-04-21 11:12 | 29.88030 | 121.30682 | 11355 ft | 364 kts | 55° |
| 2026-04-21 11:13 | 29.89282 | 121.33219 | 10850 ft | 366 kts | 68° |
| 2026-04-21 11:13 | 29.89702 | 121.36067 | 10658 ft | 358 kts | 88° |
| 2026-04-21 11:13 | 29.89794 | 121.38881 | 10612 ft | 338 kts | 86° |
| 2026-04-21 11:13 | 29.89901 | 121.41486 | 10572 ft | 315 kts | 86° |
| 2026-04-21 11:14 | 29.89999 | 121.43927 | 10524 ft | 293 kts | 86° |
| 2026-04-21 11:14 | 29.90090 | 121.46213 | 10470 ft | 281 kts | 86° |
| 2026-04-21 11:14 | 29.90180 | 121.48513 | 10398 ft | 291 kts | 86° |
| 2026-04-21 11:14 | 29.90271 | 121.50856 | 10009 ft | 296 kts | 86° |
| 2026-04-21 11:15 | 29.90364 | 121.53249 | 9810 ft | 300 kts | 86° |
| 2026-04-21 11:15 | 29.90458 | 121.55679 | 9792 ft | 305 kts | 86° |
| 2026-04-21 11:15 | 29.90552 | 121.58125 | 9797 ft | 306 kts | 86° |
| 2026-04-21 11:15 | 29.90645 | 121.60582 | 9803 ft | 307 kts | 86° |
| 2026-04-21 11:16 | 29.90737 | 121.63005 | 9805 ft | 306 kts | 86° |
| 2026-04-21 11:16 | 29.90831 | 121.65488 | 9808 ft | 307 kts | 86° |
| 2026-04-21 11:16 | 29.90922 | 121.67914 | 9808 ft | 307 kts | 86° |
| 2026-04-21 11:16 | 29.91014 | 121.70367 | 9807 ft | 306 kts | 86° |
| 2026-04-21 11:17 | 29.91106 | 121.72824 | 9819 ft | 306 kts | 86° |
| 2026-04-21 11:17 | 29.91196 | 121.75275 | 9855 ft | 307 kts | 86° |
| 2026-04-21 11:17 | 29.91287 | 121.77731 | 9855 ft | 307 kts | 86° |
| 2026-04-21 11:17 | 29.91378 | 121.80198 | 9862 ft | 307 kts | 86° |
| 2026-04-21 11:18 | 29.91467 | 121.82654 | 9864 ft | 307 kts | 86° |
| 2026-04-21 11:18 | 29.91556 | 121.85094 | 9867 ft | 307 kts | 86° |
| 2026-04-21 11:18 | 29.91646 | 121.87582 | 9864 ft | 307 kts | 86° |
| 2026-04-21 11:18 | 29.91734 | 121.90042 | 9826 ft | 307 kts | 86° |
| 2026-04-21 11:19 | 29.91822 | 121.92495 | 9820 ft | 307 kts | 86° |
| 2026-04-21 11:19 | 29.91910 | 121.94965 | 9819 ft | 307 kts | 86° |
| 2026-04-21 11:19 | 29.91997 | 121.97432 | 9824 ft | 307 kts | 87° |
| 2026-04-21 11:19 | 29.91703 | 121.99844 | 9801 ft | 306 kts | 111° |
| 2026-04-21 11:20 | 29.90639 | 122.01940 | 9449 ft | 305 kts | 130° |
| 2026-04-21 11:20 | 29.89295 | 122.03834 | 8853 ft | 313 kts | 130° |
| 2026-04-21 11:20 | 29.87906 | 122.05786 | 8227 ft | 316 kts | 131° |
| 2026-04-21 11:20 | 29.86512 | 122.07735 | 7655 ft | 312 kts | 131° |
| 2026-04-21 11:21 | 29.85150 | 122.09634 | 7247 ft | 302 kts | 132° |
| 2026-04-21 11:21 | 29.83828 | 122.11475 | 6929 ft | 290 kts | 132° |
| 2026-04-21 11:21 | 29.82568 | 122.13226 | 6635 ft | 278 kts | 132° |
| 2026-04-21 11:21 | 29.81367 | 122.14895 | 6355 ft | 268 kts | 132° |
| 2026-04-21 11:22 | 29.80176 | 122.16548 | 6056 ft | 271 kts | 132° |
| 2026-04-21 11:22 | 29.78960 | 122.18238 | 5763 ft | 276 kts | 132° |
| 2026-04-21 11:22 | 29.77756 | 122.19908 | 5610 ft | 269 kts | 132° |
| 2026-04-21 11:22 | 29.76570 | 122.21553 | 5481 ft | 261 kts | 132° |
| 2026-04-21 11:23 | 29.75430 | 122.23134 | 5357 ft | 252 kts | 132° |
| 2026-04-21 11:23 | 29.74323 | 122.24670 | 5233 ft | 245 kts | 132° |
| 2026-04-21 11:23 | 29.73249 | 122.26158 | 5098 ft | 238 kts | 133° |
| 2026-04-21 11:23 | 29.72302 | 122.27684 | 4880 ft | 236 kts | 115° |
| 2026-04-21 11:24 | 29.72032 | 122.29520 | 4579 ft | 239 kts | 88° |
| 2026-04-21 11:24 | 29.72155 | 122.31398 | 4423 ft | 232 kts | 87° |
| 2026-04-21 11:24 | 29.72280 | 122.33211 | 4308 ft | 223 kts | 87° |
| 2026-04-21 11:24 | 29.72407 | 122.34967 | 4155 ft | 217 kts | 86° |
| 2026-04-21 11:25 | 29.72815 | 122.36616 | 3872 ft | 218 kts | 58° |
| 2026-04-21 11:25 | 29.73896 | 122.37788 | 3621 ft | 212 kts | 26° |
| 2026-04-21 11:25 | 29.75285 | 122.38139 | 3372 ft | 201 kts | 358° |
| 2026-04-21 11:25 | 29.76643 | 122.38005 | 3107 ft | 193 kts | 354° |
| 2026-04-21 11:26 | 29.77968 | 122.37852 | 2856 ft | 189 kts | 355° |
| 2026-04-21 11:26 | 29.79252 | 122.37714 | 2618 ft | 178 kts | 356° |
| 2026-04-21 11:26 | 29.80461 | 122.37587 | 2364 ft | 171 kts | 357° |
| 2026-04-21 11:26 | 29.81609 | 122.37464 | 2136 ft | 157 kts | 358° |
| 2026-04-21 11:27 | 29.82317 | 122.37388 | 2027 ft | 153 kts | 359° |
| 2026-04-21 11:27 | 29.83355 | 122.37280 | 1817 ft | 147 kts | 359° |
| 2026-04-21 11:27 | 29.84367 | 122.37174 | 1590 ft | 145 kts | 358° |
| 2026-04-21 11:27 | 29.85706 | 122.37036 | 1325 ft | 144 kts | 360° |
| 2026-04-21 11:28 | 29.86365 | 122.36971 | 1187 ft | 143 kts | 0° |
| 2026-04-21 11:28 | 29.87355 | 122.36866 | 1008 ft | 143 kts | 0° |
| 2026-04-21 11:28 | 29.88344 | 122.36760 | 816 ft | 146 kts | 360° |
| 2026-04-21 11:28 | 29.89378 | 122.36649 | 649 ft | 148 kts | 360° |
| 2026-04-21 11:29 | 29.90390 | 122.36546 | 430 ft | 145 kts | 359° |
| 2026-04-21 11:29 | 29.91417 | 122.36442 | 240 ft | 151 kts | 360° |
| 2026-04-21 11:29 | 29.92477 | 122.36325 | 64 ft | 156 kts | 358° |
| 2026-04-21 11:29 | 29.93472 | 122.36227 | 14 ft | 119 kts | 355° |
| 2026-04-21 11:30 | 29.93911 | 122.36181 | 17 ft | 43 kts | 354° |
| 2026-04-21 11:30 | 29.94104 | 122.36160 | 18 ft | 14 kts | 355° |
| 2026-04-21 11:30 | 29.94178 | 122.36103 | 17 ft | 14 kts | 281° |
| 2026-04-21 11:30 | 29.94174 | 122.36007 | 17 ft | 8 kts | 265° |
| 2026-04-21 11:31 | 29.94149 | 122.35968 | 19 ft | 3 kts | 206° |
| 2026-04-21 11:31 | 29.94143 | 122.35968 | 19 ft | 2 kts | 182° |
| 2026-04-21 11:31 | 29.94094 | 122.35970 | 17 ft | 10 kts | 173° |
| 2026-04-21 11:31 | 29.94024 | 122.35977 | 17 ft | 10 kts | 174° |
| 2026-04-21 11:32 | 29.93951 | 122.35985 | 17 ft | 11 kts | 175° |
| 2026-04-21 11:32 | 29.93876 | 122.35993 | 17 ft | 12 kts | 175° |
| 2026-04-21 11:32 | 29.93825 | 122.35980 | 18 ft | 3 kts | 226° |
| 2026-04-21 11:32 | 29.93820 | 122.35963 | 20 ft | 5 kts | 259° |
| 2026-04-21 11:33 | 29.93780 | 122.35921 | 17 ft | 10 kts | 182° |
| 2026-04-21 11:33 | 29.93704 | 122.35928 | 18 ft | 11 kts | 175° |
| 2026-04-21 11:33 | 29.93675 | 122.35927 | 17 ft | 1 kts | 203° |
| 2026-04-21 11:33 | 29.93659 | 122.35908 | 17 ft | 7 kts | 243° |
| 2026-04-21 11:34 | 29.93654 | 122.35865 | 17 ft | 3 kts | 265° |
| 2026-04-21 11:34 | 29.93652 | 122.35849 | 17 ft | 1 kts | 265° |
| 2026-04-21 11:34 | 29.93652 | 122.35847 | 17 ft | 0 kts | 265° |